sensor_id;sensor_type;location;lat;lon;timestamp;P1;durP1;ratioP1;P2;durP2;ratioP2
37495;SDS011;23346;52.088;4.746;2023-03-12T00:00:41;9.50;;;4.07;;
37495;SDS011;23346;52.088;4.746;2023-03-12T00:03:07;4.77;;;3.50;;
37495;SDS011;23346;52.088;4.746;2023-03-12T00:05:37;8.27;;;4.33;;
37495;SDS011;23346;52.088;4.746;2023-03-12T00:08:03;6.03;;;3.90;;
37495;SDS011;23346;52.088;4.746;2023-03-12T00:10:30;6.20;;;4.80;;
37495;SDS011;23346;52.088;4.746;2023-03-12T00:12:56;6.70;;;4.10;;
37495;SDS011;23346;52.088;4.746;2023-03-12T00:15:22;8.40;;;4.27;;
37495;SDS011;23346;52.088;4.746;2023-03-12T00:17:48;10.63;;;4.97;;
37495;SDS011;23346;52.088;4.746;2023-03-12T00:20:14;5.90;;;4.30;;
37495;SDS011;23346;52.088;4.746;2023-03-12T00:22:40;11.53;;;4.97;;
37495;SDS011;23346;52.088;4.746;2023-03-12T00:25:09;15.30;;;5.10;;
37495;SDS011;23346;52.088;4.746;2023-03-12T00:27:35;14.30;;;4.80;;
37495;SDS011;23346;52.088;4.746;2023-03-12T00:30:02;8.17;;;4.80;;
37495;SDS011;23346;52.088;4.746;2023-03-12T00:32:29;7.47;;;4.43;;
37495;SDS011;23346;52.088;4.746;2023-03-12T00:34:57;9.80;;;4.70;;
37495;SDS011;23346;52.088;4.746;2023-03-12T00:37:23;8.83;;;4.50;;
37495;SDS011;23346;52.088;4.746;2023-03-12T00:39:49;8.67;;;4.37;;
37495;SDS011;23346;52.088;4.746;2023-03-12T00:42:15;9.20;;;4.40;;
37495;SDS011;23346;52.088;4.746;2023-03-12T00:44:41;7.63;;;4.17;;
37495;SDS011;23346;52.088;4.746;2023-03-12T00:47:08;22.40;;;4.77;;
37495;SDS011;23346;52.088;4.746;2023-03-12T00:49:34;15.83;;;4.97;;
37495;SDS011;23346;52.088;4.746;2023-03-12T00:52:00;5.30;;;3.80;;
37495;SDS011;23346;52.088;4.746;2023-03-12T00:54:26;7.97;;;4.40;;
37495;SDS011;23346;52.088;4.746;2023-03-12T00:56:52;6.57;;;4.30;;
37495;SDS011;23346;52.088;4.746;2023-03-12T00:59:18;5.97;;;4.13;;
37495;SDS011;23346;52.088;4.746;2023-03-12T01:01:44;7.30;;;3.97;;
37495;SDS011;23346;52.088;4.746;2023-03-12T01:04:10;4.10;;;3.10;;
37495;SDS011;23346;52.088;4.746;2023-03-12T01:06:36;6.73;;;3.77;;
37495;SDS011;23346;52.088;4.746;2023-03-12T01:09:03;8.07;;;5.03;;
37495;SDS011;23346;52.088;4.746;2023-03-12T01:11:30;7.27;;;4.03;;
37495;SDS011;23346;52.088;4.746;2023-03-12T01:13:57;7.27;;;3.60;;
37495;SDS011;23346;52.088;4.746;2023-03-12T01:16:24;12.20;;;4.30;;
37495;SDS011;23346;52.088;4.746;2023-03-12T01:18:52;6.10;;;4.13;;
37495;SDS011;23346;52.088;4.746;2023-03-12T01:21:18;10.50;;;4.43;;
37495;SDS011;23346;52.088;4.746;2023-03-12T01:23:44;8.53;;;4.17;;
37495;SDS011;23346;52.088;4.746;2023-03-12T01:26:10;5.70;;;4.10;;
37495;SDS011;23346;52.088;4.746;2023-03-12T01:28:36;10.17;;;4.07;;
37495;SDS011;23346;52.088;4.746;2023-03-12T01:31:06;9.70;;;3.90;;
37495;SDS011;23346;52.088;4.746;2023-03-12T01:33:32;5.03;;;4.37;;
37495;SDS011;23346;52.088;4.746;2023-03-12T01:35:58;5.83;;;3.60;;
37495;SDS011;23346;52.088;4.746;2023-03-12T01:38:24;4.93;;;3.10;;
37495;SDS011;23346;52.088;4.746;2023-03-12T01:40:50;12.33;;;3.73;;
37495;SDS011;23346;52.088;4.746;2023-03-12T01:43:30;9.47;;;3.77;;
37495;SDS011;23346;52.088;4.746;2023-03-12T01:48:31;5.77;;;3.57;;
37495;SDS011;23346;52.088;4.746;2023-03-12T01:50:58;6.03;;;3.67;;
37495;SDS011;23346;52.088;4.746;2023-03-12T01:53:25;4.80;;;3.43;;
37495;SDS011;23346;52.088;4.746;2023-03-12T01:55:51;8.97;;;4.13;;
37495;SDS011;23346;52.088;4.746;2023-03-12T01:58:17;6.77;;;3.70;;
37495;SDS011;23346;52.088;4.746;2023-03-12T02:00:43;11.23;;;4.43;;
37495;SDS011;23346;52.088;4.746;2023-03-12T02:03:09;5.90;;;3.50;;
37495;SDS011;23346;52.088;4.746;2023-03-12T02:05:54;3.33;;;2.97;;
37495;SDS011;23346;52.088;4.746;2023-03-12T02:08:20;9.17;;;4.13;;
37495;SDS011;23346;52.088;4.746;2023-03-12T02:10:47;8.00;;;4.00;;
37495;SDS011;23346;52.088;4.746;2023-03-12T02:13:14;7.20;;;4.50;;
37495;SDS011;23346;52.088;4.746;2023-03-12T02:15:40;6.63;;;4.83;;
37495;SDS011;23346;52.088;4.746;2023-03-12T02:18:07;7.23;;;3.37;;
37495;SDS011;23346;52.088;4.746;2023-03-12T02:20:44;6.37;;;4.40;;
37495;SDS011;23346;52.088;4.746;2023-03-12T02:23:17;5.47;;;3.60;;
37495;SDS011;23346;52.088;4.746;2023-03-12T02:25:46;5.90;;;3.70;;
37495;SDS011;23346;52.088;4.746;2023-03-12T02:28:15;6.53;;;3.93;;
37495;SDS011;23346;52.088;4.746;2023-03-12T02:30:43;4.60;;;3.87;;
37495;SDS011;23346;52.088;4.746;2023-03-12T02:33:10;9.67;;;3.77;;
37495;SDS011;23346;52.088;4.746;2023-03-12T02:35:36;7.27;;;4.00;;
37495;SDS011;23346;52.088;4.746;2023-03-12T02:38:03;8.07;;;3.83;;
37495;SDS011;23346;52.088;4.746;2023-03-12T02:40:48;7.57;;;3.77;;
37495;SDS011;23346;52.088;4.746;2023-03-12T02:43:19;7.10;;;3.23;;
37495;SDS011;23346;52.088;4.746;2023-03-12T02:45:46;4.93;;;3.63;;
37495;SDS011;23346;52.088;4.746;2023-03-12T02:48:12;6.67;;;3.20;;
37495;SDS011;23346;52.088;4.746;2023-03-12T02:50:38;7.33;;;3.40;;
37495;SDS011;23346;52.088;4.746;2023-03-12T02:53:04;12.20;;;4.53;;
37495;SDS011;23346;52.088;4.746;2023-03-12T02:55:30;7.80;;;3.70;;
37495;SDS011;23346;52.088;4.746;2023-03-12T02:57:56;4.47;;;3.30;;
37495;SDS011;23346;52.088;4.746;2023-03-12T03:00:22;7.00;;;3.57;;
37495;SDS011;23346;52.088;4.746;2023-03-12T03:02:48;5.27;;;2.83;;
37495;SDS011;23346;52.088;4.746;2023-03-12T03:05:14;5.87;;;3.40;;
37495;SDS011;23346;52.088;4.746;2023-03-12T03:07:40;4.57;;;2.87;;
37495;SDS011;23346;52.088;4.746;2023-03-12T03:10:06;8.20;;;3.07;;
37495;SDS011;23346;52.088;4.746;2023-03-12T03:12:33;4.83;;;3.37;;
37495;SDS011;23346;52.088;4.746;2023-03-12T03:14:59;6.27;;;3.53;;
37495;SDS011;23346;52.088;4.746;2023-03-12T03:17:25;7.73;;;3.67;;
37495;SDS011;23346;52.088;4.746;2023-03-12T03:19:51;6.80;;;3.23;;
37495;SDS011;23346;52.088;4.746;2023-03-12T03:22:18;12.50;;;3.70;;
37495;SDS011;23346;52.088;4.746;2023-03-12T03:24:44;6.93;;;2.90;;
37495;SDS011;23346;52.088;4.746;2023-03-12T03:27:10;7.87;;;4.33;;
37495;SDS011;23346;52.088;4.746;2023-03-12T03:29:36;4.67;;;2.70;;
37495;SDS011;23346;52.088;4.746;2023-03-12T03:32:03;6.33;;;2.30;;
37495;SDS011;23346;52.088;4.746;2023-03-12T03:34:29;5.83;;;2.77;;
37495;SDS011;23346;52.088;4.746;2023-03-12T03:36:55;8.53;;;2.73;;
37495;SDS011;23346;52.088;4.746;2023-03-12T03:39:21;6.03;;;2.67;;
37495;SDS011;23346;52.088;4.746;2023-03-12T03:41:49;3.03;;;2.73;;
37495;SDS011;23346;52.088;4.746;2023-03-12T03:44:16;8.13;;;3.13;;
37495;SDS011;23346;52.088;4.746;2023-03-12T03:46:42;8.33;;;2.40;;
37495;SDS011;23346;52.088;4.746;2023-03-12T03:49:08;5.27;;;3.00;;
37495;SDS011;23346;52.088;4.746;2023-03-12T03:51:34;11.50;;;2.87;;
37495;SDS011;23346;52.088;4.746;2023-03-12T03:54:00;6.90;;;2.73;;
37495;SDS011;23346;52.088;4.746;2023-03-12T03:56:26;9.37;;;2.80;;
37495;SDS011;23346;52.088;4.746;2023-03-12T03:58:52;8.03;;;3.13;;
37495;SDS011;23346;52.088;4.746;2023-03-12T04:01:18;4.20;;;3.10;;
37495;SDS011;23346;52.088;4.746;2023-03-12T04:03:45;7.93;;;3.30;;
37495;SDS011;23346;52.088;4.746;2023-03-12T04:06:11;6.00;;;2.97;;
37495;SDS011;23346;52.088;4.746;2023-03-12T04:08:37;7.80;;;3.67;;
37495;SDS011;23346;52.088;4.746;2023-03-12T04:11:07;5.47;;;2.97;;
37495;SDS011;23346;52.088;4.746;2023-03-12T04:13:33;5.83;;;2.57;;
37495;SDS011;23346;52.088;4.746;2023-03-12T04:15:59;5.10;;;3.10;;
37495;SDS011;23346;52.088;4.746;2023-03-12T04:18:25;6.70;;;3.17;;
37495;SDS011;23346;52.088;4.746;2023-03-12T04:20:52;3.10;;;2.80;;
37495;SDS011;23346;52.088;4.746;2023-03-12T04:23:18;6.23;;;3.13;;
37495;SDS011;23346;52.088;4.746;2023-03-12T04:25:44;5.63;;;3.20;;
37495;SDS011;23346;52.088;4.746;2023-03-12T04:28:10;5.57;;;3.30;;
37495;SDS011;23346;52.088;4.746;2023-03-12T04:30:36;7.53;;;3.93;;
37495;SDS011;23346;52.088;4.746;2023-03-12T04:33:05;4.50;;;3.20;;
37495;SDS011;23346;52.088;4.746;2023-03-12T04:35:32;6.63;;;3.63;;
37495;SDS011;23346;52.088;4.746;2023-03-12T04:37:59;9.63;;;3.90;;
37495;SDS011;23346;52.088;4.746;2023-03-12T04:40:25;4.27;;;2.97;;
37495;SDS011;23346;52.088;4.746;2023-03-12T04:42:51;11.90;;;3.63;;
37495;SDS011;23346;52.088;4.746;2023-03-12T04:45:17;5.37;;;3.00;;
37495;SDS011;23346;52.088;4.746;2023-03-12T04:47:43;4.63;;;3.30;;
37495;SDS011;23346;52.088;4.746;2023-03-12T04:50:09;7.33;;;3.20;;
37495;SDS011;23346;52.088;4.746;2023-03-12T04:52:36;5.10;;;2.37;;
37495;SDS011;23346;52.088;4.746;2023-03-12T04:55:02;7.80;;;3.40;;
37495;SDS011;23346;52.088;4.746;2023-03-12T04:57:28;4.80;;;2.70;;
37495;SDS011;23346;52.088;4.746;2023-03-12T04:59:54;6.33;;;3.10;;
37495;SDS011;23346;52.088;4.746;2023-03-12T05:02:20;5.97;;;3.87;;
37495;SDS011;23346;52.088;4.746;2023-03-12T05:04:46;8.50;;;3.63;;
37495;SDS011;23346;52.088;4.746;2023-03-12T05:07:12;7.67;;;3.87;;
37495;SDS011;23346;52.088;4.746;2023-03-12T05:09:38;6.10;;;3.43;;
37495;SDS011;23346;52.088;4.746;2023-03-12T05:12:04;6.77;;;3.73;;
37495;SDS011;23346;52.088;4.746;2023-03-12T05:14:30;5.37;;;3.73;;
37495;SDS011;23346;52.088;4.746;2023-03-12T05:16:56;9.87;;;3.63;;
37495;SDS011;23346;52.088;4.746;2023-03-12T05:19:22;8.00;;;4.27;;
37495;SDS011;23346;52.088;4.746;2023-03-12T05:21:48;9.47;;;3.93;;
37495;SDS011;23346;52.088;4.746;2023-03-12T05:24:15;13.57;;;4.30;;
37495;SDS011;23346;52.088;4.746;2023-03-12T05:26:41;11.83;;;4.10;;
37495;SDS011;23346;52.088;4.746;2023-03-12T05:29:07;5.40;;;3.40;;
37495;SDS011;23346;52.088;4.746;2023-03-12T05:31:33;5.43;;;3.57;;
37495;SDS011;23346;52.088;4.746;2023-03-12T05:34:01;10.13;;;3.93;;
37495;SDS011;23346;52.088;4.746;2023-03-12T05:36:27;5.27;;;3.40;;
37495;SDS011;23346;52.088;4.746;2023-03-12T05:38:53;8.30;;;4.17;;
37495;SDS011;23346;52.088;4.746;2023-03-12T05:41:24;13.73;;;4.60;;
37495;SDS011;23346;52.088;4.746;2023-03-12T05:43:53;8.07;;;4.03;;
37495;SDS011;23346;52.088;4.746;2023-03-12T05:46:20;5.37;;;3.70;;
37495;SDS011;23346;52.088;4.746;2023-03-12T05:48:46;8.40;;;4.13;;
37495;SDS011;23346;52.088;4.746;2023-03-12T05:51:12;4.63;;;3.27;;
37495;SDS011;23346;52.088;4.746;2023-03-12T05:53:38;9.13;;;4.53;;
37495;SDS011;23346;52.088;4.746;2023-03-12T05:56:05;8.23;;;4.50;;
37495;SDS011;23346;52.088;4.746;2023-03-12T05:58:32;10.17;;;4.73;;
37495;SDS011;23346;52.088;4.746;2023-03-12T06:00:59;5.57;;;3.53;;
37495;SDS011;23346;52.088;4.746;2023-03-12T06:03:25;5.93;;;3.77;;
37495;SDS011;23346;52.088;4.746;2023-03-12T06:05:51;8.20;;;4.93;;
37495;SDS011;23346;52.088;4.746;2023-03-12T06:08:19;10.33;;;4.67;;
37495;SDS011;23346;52.088;4.746;2023-03-12T06:10:45;6.70;;;4.77;;
37495;SDS011;23346;52.088;4.746;2023-03-12T06:13:11;9.00;;;4.23;;
37495;SDS011;23346;52.088;4.746;2023-03-12T06:15:37;8.93;;;5.07;;
37495;SDS011;23346;52.088;4.746;2023-03-12T06:18:03;9.17;;;4.90;;
37495;SDS011;23346;52.088;4.746;2023-03-12T06:20:29;6.33;;;3.83;;
37495;SDS011;23346;52.088;4.746;2023-03-12T06:22:55;9.63;;;5.57;;
37495;SDS011;23346;52.088;4.746;2023-03-12T06:25:21;9.60;;;5.67;;
37495;SDS011;23346;52.088;4.746;2023-03-12T06:27:47;9.90;;;4.73;;
37495;SDS011;23346;52.088;4.746;2023-03-12T06:30:14;7.60;;;4.97;;
37495;SDS011;23346;52.088;4.746;2023-03-12T06:32:40;8.77;;;5.60;;
37495;SDS011;23346;52.088;4.746;2023-03-12T06:35:06;8.80;;;4.97;;
37495;SDS011;23346;52.088;4.746;2023-03-12T06:37:32;6.63;;;4.93;;
37495;SDS011;23346;52.088;4.746;2023-03-12T06:39:58;8.73;;;5.37;;
37495;SDS011;23346;52.088;4.746;2023-03-12T06:42:24;7.00;;;4.40;;
37495;SDS011;23346;52.088;4.746;2023-03-12T06:44:50;8.60;;;5.50;;
37495;SDS011;23346;52.088;4.746;2023-03-12T06:47:17;11.53;;;6.17;;
37495;SDS011;23346;52.088;4.746;2023-03-12T06:49:43;14.23;;;5.63;;
37495;SDS011;23346;52.088;4.746;2023-03-12T06:52:09;10.47;;;5.87;;
37495;SDS011;23346;52.088;4.746;2023-03-12T06:54:35;13.13;;;5.73;;
37495;SDS011;23346;52.088;4.746;2023-03-12T06:57:02;9.40;;;5.77;;
37495;SDS011;23346;52.088;4.746;2023-03-12T06:59:28;10.43;;;6.67;;
37495;SDS011;23346;52.088;4.746;2023-03-12T07:01:54;8.63;;;6.03;;
37495;SDS011;23346;52.088;4.746;2023-03-12T07:04:20;9.83;;;5.90;;
37495;SDS011;23346;52.088;4.746;2023-03-12T07:06:47;12.00;;;6.43;;
37495;SDS011;23346;52.088;4.746;2023-03-12T07:09:15;10.00;;;6.57;;
37495;SDS011;23346;52.088;4.746;2023-03-12T07:11:42;8.23;;;5.17;;
37495;SDS011;23346;52.088;4.746;2023-03-12T07:14:08;12.03;;;6.33;;
37495;SDS011;23346;52.088;4.746;2023-03-12T07:16:34;13.07;;;5.67;;
37495;SDS011;23346;52.088;4.746;2023-03-12T07:19:00;11.40;;;5.97;;
37495;SDS011;23346;52.088;4.746;2023-03-12T07:21:26;11.87;;;6.33;;
37495;SDS011;23346;52.088;4.746;2023-03-12T07:23:52;11.43;;;6.87;;
37495;SDS011;23346;52.088;4.746;2023-03-12T07:26:18;14.17;;;6.40;;
37495;SDS011;23346;52.088;4.746;2023-03-12T07:28:44;13.17;;;7.67;;
37495;SDS011;23346;52.088;4.746;2023-03-12T07:31:10;12.70;;;7.07;;
37495;SDS011;23346;52.088;4.746;2023-03-12T07:33:36;14.37;;;8.00;;
37495;SDS011;23346;52.088;4.746;2023-03-12T07:36:03;11.40;;;8.20;;
37495;SDS011;23346;52.088;4.746;2023-03-12T07:38:29;9.83;;;7.33;;
37495;SDS011;23346;52.088;4.746;2023-03-12T07:40:56;10.33;;;7.33;;
37495;SDS011;23346;52.088;4.746;2023-03-12T07:43:22;17.27;;;8.77;;
37495;SDS011;23346;52.088;4.746;2023-03-12T07:45:49;15.80;;;8.40;;
37495;SDS011;23346;52.088;4.746;2023-03-12T07:48:15;14.73;;;8.67;;
37495;SDS011;23346;52.088;4.746;2023-03-12T07:50:43;16.17;;;6.97;;
37495;SDS011;23346;52.088;4.746;2023-03-12T07:53:09;13.33;;;9.07;;
37495;SDS011;23346;52.088;4.746;2023-03-12T07:55:36;14.00;;;9.17;;
37495;SDS011;23346;52.088;4.746;2023-03-12T07:58:02;19.33;;;9.97;;
37495;SDS011;23346;52.088;4.746;2023-03-12T08:00:28;19.23;;;10.53;;
37495;SDS011;23346;52.088;4.746;2023-03-12T08:02:55;15.03;;;9.17;;
37495;SDS011;23346;52.088;4.746;2023-03-12T08:05:21;17.40;;;7.43;;
37495;SDS011;23346;52.088;4.746;2023-03-12T08:07:49;17.63;;;9.67;;
37495;SDS011;23346;52.088;4.746;2023-03-12T08:10:16;14.47;;;9.47;;
37495;SDS011;23346;52.088;4.746;2023-03-12T08:12:42;13.73;;;8.00;;
37495;SDS011;23346;52.088;4.746;2023-03-12T08:15:08;16.77;;;9.30;;
37495;SDS011;23346;52.088;4.746;2023-03-12T08:17:36;12.80;;;8.10;;
37495;SDS011;23346;52.088;4.746;2023-03-12T08:20:03;18.83;;;10.80;;
37495;SDS011;23346;52.088;4.746;2023-03-12T08:22:30;16.30;;;9.27;;
37495;SDS011;23346;52.088;4.746;2023-03-12T08:24:56;19.47;;;10.97;;
37495;SDS011;23346;52.088;4.746;2023-03-12T08:27:22;15.40;;;9.37;;
37495;SDS011;23346;52.088;4.746;2023-03-12T08:29:48;20.30;;;10.97;;
37495;SDS011;23346;52.088;4.746;2023-03-12T08:32:14;18.97;;;11.33;;
37495;SDS011;23346;52.088;4.746;2023-03-12T08:34:40;14.77;;;9.17;;
37495;SDS011;23346;52.088;4.746;2023-03-12T08:37:06;21.57;;;9.70;;
37495;SDS011;23346;52.088;4.746;2023-03-12T08:39:32;21.20;;;11.53;;
37495;SDS011;23346;52.088;4.746;2023-03-12T08:41:58;23.73;;;12.53;;
37495;SDS011;23346;52.088;4.746;2023-03-12T08:44:25;21.10;;;11.63;;
37495;SDS011;23346;52.088;4.746;2023-03-12T08:46:51;20.83;;;10.87;;
37495;SDS011;23346;52.088;4.746;2023-03-12T08:49:17;25.97;;;12.60;;
37495;SDS011;23346;52.088;4.746;2023-03-12T08:51:44;22.43;;;12.80;;
37495;SDS011;23346;52.088;4.746;2023-03-12T08:54:10;25.50;;;13.40;;
37495;SDS011;23346;52.088;4.746;2023-03-12T08:56:36;24.77;;;13.33;;
37495;SDS011;23346;52.088;4.746;2023-03-12T08:59:05;33.93;;;14.73;;
37495;SDS011;23346;52.088;4.746;2023-03-12T09:01:31;29.93;;;14.17;;
37495;SDS011;23346;52.088;4.746;2023-03-12T09:03:57;27.27;;;14.17;;
37495;SDS011;23346;52.088;4.746;2023-03-12T09:06:23;38.10;;;14.57;;
37495;SDS011;23346;52.088;4.746;2023-03-12T09:08:49;29.73;;;15.23;;
37495;SDS011;23346;52.088;4.746;2023-03-12T09:11:15;30.20;;;15.30;;
37495;SDS011;23346;52.088;4.746;2023-03-12T09:13:42;26.33;;;14.50;;
37495;SDS011;23346;52.088;4.746;2023-03-12T09:16:08;31.93;;;16.63;;
37495;SDS011;23346;52.088;4.746;2023-03-12T09:18:34;29.90;;;15.37;;
37495;SDS011;23346;52.088;4.746;2023-03-12T09:21:00;37.23;;;16.67;;
37495;SDS011;23346;52.088;4.746;2023-03-12T09:23:26;34.53;;;15.07;;
37495;SDS011;23346;52.088;4.746;2023-03-12T09:25:53;33.57;;;16.10;;
37495;SDS011;23346;52.088;4.746;2023-03-12T09:28:19;39.47;;;17.83;;
37495;SDS011;23346;52.088;4.746;2023-03-12T09:30:45;28.33;;;15.90;;
37495;SDS011;23346;52.088;4.746;2023-03-12T09:33:11;31.30;;;14.70;;
37495;SDS011;23346;52.088;4.746;2023-03-12T09:35:39;26.13;;;13.07;;
37495;SDS011;23346;52.088;4.746;2023-03-12T09:38:05;28.87;;;14.93;;
37495;SDS011;23346;52.088;4.746;2023-03-12T09:40:31;32.33;;;13.10;;
37495;SDS011;23346;52.088;4.746;2023-03-12T09:43:05;31.03;;;13.60;;
37495;SDS011;23346;52.088;4.746;2023-03-12T09:45:35;29.23;;;12.57;;
37495;SDS011;23346;52.088;4.746;2023-03-12T09:48:03;26.63;;;11.67;;
37495;SDS011;23346;52.088;4.746;2023-03-12T09:50:31;30.70;;;12.67;;
37495;SDS011;23346;52.088;4.746;2023-03-12T09:53:01;30.60;;;11.80;;
37495;SDS011;23346;52.088;4.746;2023-03-12T09:55:31;27.03;;;12.00;;
37495;SDS011;23346;52.088;4.746;2023-03-12T09:58:00;28.50;;;11.37;;
37495;SDS011;23346;52.088;4.746;2023-03-12T10:00:28;22.60;;;9.87;;
37495;SDS011;23346;52.088;4.746;2023-03-12T10:03:16;25.23;;;10.00;;
37495;SDS011;23346;52.088;4.746;2023-03-12T10:05:59;21.07;;;8.47;;
37495;SDS011;23346;52.088;4.746;2023-03-12T10:08:32;14.47;;;7.27;;
37495;SDS011;23346;52.088;4.746;2023-03-12T10:16:31;22.47;;;4.33;;
37495;SDS011;23346;52.088;4.746;2023-03-12T10:19:13;18.77;;;4.00;;
37495;SDS011;23346;52.088;4.746;2023-03-12T10:21:51;18.60;;;3.83;;
37495;SDS011;23346;52.088;4.746;2023-03-12T10:24:21;26.60;;;4.80;;
37495;SDS011;23346;52.088;4.746;2023-03-12T10:26:53;20.90;;;3.57;;
37495;SDS011;23346;52.088;4.746;2023-03-12T10:31:47;30.07;;;3.83;;
37495;SDS011;23346;52.088;4.746;2023-03-12T10:34:17;33.30;;;4.63;;
37495;SDS011;23346;52.088;4.746;2023-03-12T10:36:46;23.80;;;4.33;;
37495;SDS011;23346;52.088;4.746;2023-03-12T10:39:13;23.40;;;4.37;;
37495;SDS011;23346;52.088;4.746;2023-03-12T10:41:40;20.53;;;3.53;;
37495;SDS011;23346;52.088;4.746;2023-03-12T10:44:07;19.80;;;3.47;;
37495;SDS011;23346;52.088;4.746;2023-03-12T10:51:58;18.43;;;3.30;;
37495;SDS011;23346;52.088;4.746;2023-03-12T10:54:35;26.87;;;4.60;;
37495;SDS011;23346;52.088;4.746;2023-03-12T10:57:01;29.63;;;4.83;;
37495;SDS011;23346;52.088;4.746;2023-03-12T10:59:29;25.43;;;5.20;;
37495;SDS011;23346;52.088;4.746;2023-03-12T11:01:55;29.83;;;4.77;;
37495;SDS011;23346;52.088;4.746;2023-03-12T11:04:26;24.33;;;4.10;;
37495;SDS011;23346;52.088;4.746;2023-03-12T11:07:53;14.23;;;3.20;;
37495;SDS011;23346;52.088;4.746;2023-03-12T11:10:10;28.73;;;4.80;;
37495;SDS011;23346;52.088;4.746;2023-03-12T11:12:37;30.10;;;4.13;;
37495;SDS011;23346;52.088;4.746;2023-03-12T11:15:17;17.17;;;3.37;;
37495;SDS011;23346;52.088;4.746;2023-03-12T11:17:44;17.17;;;3.63;;
37495;SDS011;23346;52.088;4.746;2023-03-12T11:20:22;27.90;;;4.90;;
37495;SDS011;23346;52.088;4.746;2023-03-12T11:22:49;19.00;;;3.53;;
37495;SDS011;23346;52.088;4.746;2023-03-12T11:25:33;22.40;;;3.17;;
37495;SDS011;23346;52.088;4.746;2023-03-12T11:27:59;26.83;;;4.67;;
37495;SDS011;23346;52.088;4.746;2023-03-12T11:30:31;14.90;;;4.13;;
37495;SDS011;23346;52.088;4.746;2023-03-12T11:33:01;23.30;;;3.90;;
37495;SDS011;23346;52.088;4.746;2023-03-12T11:45:45;25.40;;;3.17;;
37495;SDS011;23346;52.088;4.746;2023-03-12T12:00:52;18.70;;;3.27;;
37495;SDS011;23346;52.088;4.746;2023-03-12T12:08:46;12.27;;;2.60;;
37495;SDS011;23346;52.088;4.746;2023-03-12T12:11:23;29.23;;;3.63;;
37495;SDS011;23346;52.088;4.746;2023-03-12T12:27:23;24.93;;;3.47;;
37495;SDS011;23346;52.088;4.746;2023-03-12T12:30:05;33.03;;;4.57;;
37495;SDS011;23346;52.088;4.746;2023-03-12T12:35:15;26.80;;;4.77;;
37495;SDS011;23346;52.088;4.746;2023-03-12T12:37:46;28.37;;;3.70;;
37495;SDS011;23346;52.088;4.746;2023-03-12T12:40:15;28.67;;;4.93;;
37495;SDS011;23346;52.088;4.746;2023-03-12T12:42:47;26.23;;;4.30;;
37495;SDS011;23346;52.088;4.746;2023-03-12T12:45:14;23.80;;;4.70;;
37495;SDS011;23346;52.088;4.746;2023-03-12T12:47:44;23.43;;;4.40;;
37495;SDS011;23346;52.088;4.746;2023-03-12T12:50:31;22.17;;;4.00;;
37495;SDS011;23346;52.088;4.746;2023-03-12T12:53:01;17.50;;;2.70;;
37495;SDS011;23346;52.088;4.746;2023-03-12T12:55:30;18.00;;;3.60;;
37495;SDS011;23346;52.088;4.746;2023-03-12T12:58:01;23.43;;;4.30;;
37495;SDS011;23346;52.088;4.746;2023-03-12T13:02:54;26.20;;;3.70;;
37495;SDS011;23346;52.088;4.746;2023-03-12T13:05:24;15.33;;;2.73;;
37495;SDS011;23346;52.088;4.746;2023-03-12T13:07:50;28.50;;;3.80;;
37495;SDS011;23346;52.088;4.746;2023-03-12T13:12:57;18.37;;;3.53;;
37495;SDS011;23346;52.088;4.746;2023-03-12T13:25:47;29.13;;;4.27;;
37495;SDS011;23346;52.088;4.746;2023-03-12T13:30:54;21.63;;;3.67;;
37495;SDS011;23346;52.088;4.746;2023-03-12T13:36:26;17.53;;;3.10;;
37495;SDS011;23346;52.088;4.746;2023-03-12T13:39:00;21.03;;;2.67;;
37495;SDS011;23346;52.088;4.746;2023-03-12T13:46:57;23.87;;;4.13;;
37495;SDS011;23346;52.088;4.746;2023-03-12T13:49:23;16.90;;;3.03;;
37495;SDS011;23346;52.088;4.746;2023-03-12T13:51:58;26.40;;;3.67;;
37495;SDS011;23346;52.088;4.746;2023-03-12T13:54:26;19.63;;;3.47;;
37495;SDS011;23346;52.088;4.746;2023-03-12T13:56:54;18.70;;;3.50;;
37495;SDS011;23346;52.088;4.746;2023-03-12T13:59:21;18.57;;;3.23;;
37495;SDS011;23346;52.088;4.746;2023-03-12T14:01:49;27.40;;;3.70;;
37495;SDS011;23346;52.088;4.746;2023-03-12T14:04:28;16.30;;;2.77;;
37495;SDS011;23346;52.088;4.746;2023-03-12T14:09:36;20.90;;;3.77;;
37495;SDS011;23346;52.088;4.746;2023-03-12T14:12:05;26.40;;;3.53;;
37495;SDS011;23346;52.088;4.746;2023-03-12T14:17:24;7.53;;;1.90;;
37495;SDS011;23346;52.088;4.746;2023-03-12T14:20:01;19.23;;;2.40;;
37495;SDS011;23346;52.088;4.746;2023-03-12T14:22:31;13.00;;;2.13;;
37495;SDS011;23346;52.088;4.746;2023-03-12T14:24:58;33.77;;;4.53;;
37495;SDS011;23346;52.088;4.746;2023-03-12T14:27:27;29.27;;;3.20;;
37495;SDS011;23346;52.088;4.746;2023-03-12T14:29:58;30.07;;;3.87;;
37495;SDS011;23346;52.088;4.746;2023-03-12T14:32:29;23.07;;;3.80;;
37495;SDS011;23346;52.088;4.746;2023-03-12T14:37:31;16.80;;;2.50;;
37495;SDS011;23346;52.088;4.746;2023-03-12T14:40:01;27.70;;;4.63;;
37495;SDS011;23346;52.088;4.746;2023-03-12T14:42:30;20.97;;;3.67;;
37495;SDS011;23346;52.088;4.746;2023-03-12T14:45:08;20.23;;;3.37;;
37495;SDS011;23346;52.088;4.746;2023-03-12T14:47:41;28.50;;;3.73;;
37495;SDS011;23346;52.088;4.746;2023-03-12T14:50:22;25.80;;;4.10;;
37495;SDS011;23346;52.088;4.746;2023-03-12T14:52:48;23.73;;;3.97;;
37495;SDS011;23346;52.088;4.746;2023-03-12T14:55:15;18.97;;;3.20;;
37495;SDS011;23346;52.088;4.746;2023-03-12T14:57:42;26.30;;;3.83;;
37495;SDS011;23346;52.088;4.746;2023-03-12T15:00:22;29.43;;;4.53;;
37495;SDS011;23346;52.088;4.746;2023-03-12T15:02:48;20.43;;;4.17;;
37495;SDS011;23346;52.088;4.746;2023-03-12T15:05:15;22.60;;;4.23;;
37495;SDS011;23346;52.088;4.746;2023-03-12T15:07:42;19.20;;;2.77;;
37495;SDS011;23346;52.088;4.746;2023-03-12T15:10:21;17.17;;;3.13;;
37495;SDS011;23346;52.088;4.746;2023-03-12T15:12:47;39.43;;;3.60;;
37495;SDS011;23346;52.088;4.746;2023-03-12T15:15:34;21.83;;;3.43;;
37495;SDS011;23346;52.088;4.746;2023-03-12T15:18:03;20.80;;;3.40;;
37495;SDS011;23346;52.088;4.746;2023-03-12T15:20:29;25.53;;;4.33;;
37495;SDS011;23346;52.088;4.746;2023-03-12T15:22:55;25.33;;;4.57;;
37495;SDS011;23346;52.088;4.746;2023-03-12T15:25:26;18.90;;;3.60;;
37495;SDS011;23346;52.088;4.746;2023-03-12T15:30:27;19.67;;;3.40;;
37495;SDS011;23346;52.088;4.746;2023-03-12T15:33:07;25.57;;;4.50;;
37495;SDS011;23346;52.088;4.746;2023-03-12T15:35:34;26.50;;;3.37;;
37495;SDS011;23346;52.088;4.746;2023-03-12T15:38:00;38.27;;;4.43;;
37495;SDS011;23346;52.088;4.746;2023-03-12T15:40:27;26.07;;;4.30;;
37495;SDS011;23346;52.088;4.746;2023-03-12T15:42:54;27.27;;;3.43;;
37495;SDS011;23346;52.088;4.746;2023-03-12T15:47:55;22.53;;;3.97;;
37495;SDS011;23346;52.088;4.746;2023-03-12T15:50:42;21.60;;;3.63;;
37495;SDS011;23346;52.088;4.746;2023-03-12T15:55:36;19.33;;;3.53;;
37495;SDS011;23346;52.088;4.746;2023-03-12T15:58:22;14.53;;;3.37;;
37495;SDS011;23346;52.088;4.746;2023-03-12T16:00:50;22.77;;;4.57;;
37495;SDS011;23346;52.088;4.746;2023-03-12T16:03:20;29.53;;;3.60;;
37495;SDS011;23346;52.088;4.746;2023-03-12T16:05:49;31.57;;;4.53;;
37495;SDS011;23346;52.088;4.746;2023-03-12T16:08:26;25.70;;;4.73;;
37495;SDS011;23346;52.088;4.746;2023-03-12T16:10:56;27.10;;;4.53;;
37495;SDS011;23346;52.088;4.746;2023-03-12T16:13:23;25.70;;;4.93;;
37495;SDS011;23346;52.088;4.746;2023-03-12T16:15:52;13.07;;;2.83;;
37495;SDS011;23346;52.088;4.746;2023-03-12T16:18:19;24.63;;;4.30;;
37495;SDS011;23346;52.088;4.746;2023-03-12T16:20:45;21.33;;;3.30;;
37495;SDS011;23346;52.088;4.746;2023-03-12T16:23:11;23.37;;;2.90;;
37495;SDS011;23346;52.088;4.746;2023-03-12T16:25:38;24.40;;;3.67;;